createdAt,value
2023-03-31T00:01:46.664Z,1.90
2023-03-31T00:04:14.175Z,1.90
2023-03-31T00:06:42.134Z,1.60
2023-03-31T00:09:11.601Z,2.20
2023-03-31T00:11:40.319Z,1.93
2023-03-31T00:14:07.533Z,2.13
2023-03-31T00:16:34.744Z,1.80
2023-03-31T00:19:01.914Z,1.87
2023-03-31T00:21:29.229Z,2.80
2023-03-31T00:23:57.201Z,2.30
2023-03-31T00:26:24.573Z,2.30
2023-03-31T00:28:53.462Z,1.63
2023-03-31T00:31:20.866Z,1.50
2023-03-31T00:33:47.959Z,2.50
2023-03-31T00:36:15.135Z,2.27
2023-03-31T00:38:42.376Z,1.87
2023-03-31T00:41:11.788Z,1.90
2023-03-31T00:43:39.317Z,2.17
2023-03-31T00:46:16.196Z,1.97
2023-03-31T00:48:46.305Z,2.20
2023-03-31T00:51:13.981Z,2.50
2023-03-31T00:53:41.342Z,2.57
2023-03-31T00:56:11.485Z,2.57
2023-03-31T00:58:39.191Z,3.40
2023-03-31T01:01:06.345Z,2.37
2023-03-31T01:03:34.918Z,2.27
2023-03-31T01:06:03.156Z,1.63
2023-03-31T01:08:30.465Z,2.13
2023-03-31T01:10:58.346Z,2.67
2023-03-31T01:13:25.970Z,2.37
2023-03-31T01:15:53.573Z,2.63
2023-03-31T01:18:20.832Z,2.50
2023-03-31T01:21:02.351Z,2.27
2023-03-31T01:23:48.551Z,3.60
2023-03-31T01:26:39.462Z,2.27
2023-03-31T01:29:11.140Z,2.37
2023-03-31T01:31:48.047Z,2.20
2023-03-31T01:34:42.884Z,2.60
2023-03-31T01:37:39.263Z,2.27
2023-03-31T01:40:24.837Z,1.93
2023-03-31T01:42:54.982Z,2.17
2023-03-31T01:45:26.846Z,2.43
2023-03-31T01:47:56.901Z,3.23
2023-03-31T01:50:27.709Z,2.40
2023-03-31T01:52:58.679Z,2.57
2023-03-31T01:55:30.457Z,2.60
2023-03-31T01:58:00.705Z,2.03
2023-03-31T02:00:29.736Z,2.20
2023-03-31T02:02:58.596Z,2.20
2023-03-31T02:05:27.209Z,2.10
2023-03-31T02:07:56.465Z,2.47
2023-03-31T02:10:24.699Z,1.97
2023-03-31T02:12:54.440Z,2.27
2023-03-31T02:15:22.873Z,3.10
2023-03-31T02:17:52.142Z,2.67
2023-03-31T02:20:20.764Z,2.93
2023-03-31T02:22:49.757Z,3.20
2023-03-31T02:25:19.745Z,3.43
2023-03-31T02:27:49.243Z,3.77
2023-03-31T02:30:17.813Z,2.87
2023-03-31T02:32:45.537Z,2.73
2023-03-31T02:35:13.652Z,2.70
2023-03-31T02:37:41.423Z,3.47
2023-03-31T02:40:10.576Z,3.03
2023-03-31T02:42:37.980Z,3.03
2023-03-31T02:45:06.311Z,3.40
2023-03-31T02:47:35.307Z,3.90
2023-03-31T02:50:03.446Z,2.90
2023-03-31T02:52:45.690Z,3.17
2023-03-31T02:55:32.957Z,3.13
2023-03-31T02:58:27.375Z,4.80
2023-03-31T03:01:00.720Z,3.63
2023-03-31T03:03:37.629Z,3.37
2023-03-31T03:06:07.782Z,4.80
2023-03-31T03:08:44.493Z,3.10
2023-03-31T03:11:14.656Z,5.10
2023-03-31T03:13:45.546Z,4.90
2023-03-31T03:16:17.043Z,3.50
2023-03-31T03:18:45.596Z,2.90
2023-03-31T03:21:12.682Z,3.90
2023-03-31T03:23:39.767Z,3.50
2023-03-31T03:26:06.980Z,4.60
2023-03-31T03:28:34.213Z,4.43
2023-03-31T03:31:01.534Z,4.00
2023-03-31T03:33:28.696Z,3.67
2023-03-31T03:35:57.160Z,4.50
2023-03-31T03:38:24.387Z,3.70
2023-03-31T03:40:53.689Z,3.90
2023-03-31T03:43:20.787Z,4.03
2023-03-31T03:45:48.549Z,4.00
2023-03-31T03:48:15.716Z,4.20
2023-03-31T03:50:42.868Z,3.60
2023-03-31T03:53:11.280Z,3.00
2023-03-31T03:55:38.401Z,3.40
2023-03-31T03:58:05.584Z,3.90
2023-03-31T04:00:32.733Z,4.87
2023-03-31T04:03:00.023Z,5.00
2023-03-31T04:05:27.296Z,5.23
2023-03-31T04:07:54.475Z,4.33
2023-03-31T04:10:22.929Z,5.00
2023-03-31T04:12:50.058Z,4.50
2023-03-31T04:15:17.160Z,3.93
2023-03-31T04:17:44.264Z,4.70
2023-03-31T04:20:11.712Z,3.53
2023-03-31T04:22:39.142Z,4.10
2023-03-31T04:25:06.971Z,3.97
2023-03-31T04:27:35.446Z,4.00
2023-03-31T04:30:02.520Z,3.20
2023-03-31T04:32:29.670Z,2.97
2023-03-31T04:34:56.809Z,4.00
2023-03-31T04:37:23.926Z,4.00
2023-03-31T04:39:50.996Z,3.77
2023-03-31T04:42:18.189Z,3.40
2023-03-31T04:44:46.695Z,3.40
2023-03-31T04:47:13.824Z,3.10
2023-03-31T04:49:40.863Z,3.57
2023-03-31T04:52:07.929Z,3.37
2023-03-31T04:54:34.986Z,2.53
2023-03-31T04:57:02.099Z,2.53
2023-03-31T04:59:29.195Z,2.13
2023-03-31T05:01:57.672Z,2.70
2023-03-31T05:04:24.867Z,2.60
2023-03-31T05:06:52.017Z,2.77
2023-03-31T05:09:19.270Z,3.30
2023-03-31T05:11:46.362Z,2.23
2023-03-31T05:14:13.687Z,2.77
2023-03-31T05:16:40.883Z,3.40
2023-03-31T05:19:09.354Z,3.23
2023-03-31T05:21:38.412Z,3.00
2023-03-31T05:24:05.561Z,3.20
2023-03-31T05:26:32.698Z,2.83
2023-03-31T05:28:59.781Z,3.37
2023-03-31T05:31:26.892Z,3.90
2023-03-31T05:33:53.995Z,3.43
2023-03-31T05:36:22.485Z,3.57
2023-03-31T05:38:49.832Z,2.90
2023-03-31T05:41:17.027Z,3.70
2023-03-31T05:43:44.272Z,3.20
2023-03-31T05:46:11.597Z,3.37
2023-03-31T05:48:39.025Z,2.87
2023-03-31T05:51:06.477Z,3.23
2023-03-31T05:53:37.677Z,3.37
2023-03-31T05:56:06.528Z,4.00
2023-03-31T05:58:34.588Z,3.77
2023-03-31T06:01:02.602Z,5.37
2023-03-31T06:03:29.778Z,4.00
2023-03-31T06:05:56.895Z,3.07
2023-03-31T06:08:24.060Z,3.33
2023-03-31T06:10:52.580Z,3.17
2023-03-31T06:13:19.715Z,3.20
2023-03-31T06:15:53.220Z,4.10
2023-03-31T06:18:22.699Z,3.00
2023-03-31T06:20:49.885Z,3.33
2023-03-31T06:23:17.027Z,3.53
2023-03-31T06:25:50.946Z,4.40
2023-03-31T06:28:20.728Z,2.87
2023-03-31T06:30:47.879Z,2.60
2023-03-31T06:33:14.957Z,3.17
2023-03-31T06:35:42.200Z,3.30
2023-03-31T06:38:09.334Z,3.37
2023-03-31T06:40:36.520Z,3.63
2023-03-31T06:43:03.735Z,3.57
2023-03-31T06:45:32.189Z,2.50
2023-03-31T06:47:59.436Z,3.00
2023-03-31T06:50:26.571Z,2.20
2023-03-31T06:52:53.648Z,2.70
2023-03-31T06:55:20.792Z,2.90
2023-03-31T06:57:47.882Z,2.93
2023-03-31T07:00:15.547Z,2.77
2023-03-31T07:02:44.042Z,3.27
2023-03-31T07:05:13.342Z,2.80
2023-03-31T07:07:40.474Z,2.03
2023-03-31T07:10:08.010Z,2.40
2023-03-31T07:12:35.142Z,2.00
2023-03-31T07:15:02.383Z,1.97
2023-03-31T07:17:29.604Z,2.27
2023-03-31T07:19:58.276Z,1.90
2023-03-31T07:22:25.416Z,2.60
2023-03-31T07:24:52.671Z,2.10
2023-03-31T07:27:19.975Z,2.17
2023-03-31T07:29:47.077Z,2.30
2023-03-31T07:32:14.340Z,1.73
2023-03-31T07:34:41.511Z,1.60
2023-03-31T07:37:09.948Z,1.50
2023-03-31T07:39:37.041Z,1.03
2023-03-31T07:42:04.343Z,1.83
2023-03-31T07:44:33.329Z,1.33
2023-03-31T07:47:00.444Z,1.50
2023-03-31T07:49:27.515Z,1.30
2023-03-31T07:51:54.624Z,1.33
2023-03-31T07:54:23.581Z,1.20
2023-03-31T07:56:50.762Z,1.40
2023-03-31T07:59:17.961Z,1.10
2023-03-31T08:01:45.178Z,1.07
2023-03-31T08:04:12.712Z,1.30
2023-03-31T08:06:39.955Z,1.70
2023-03-31T08:09:07.262Z,1.77
2023-03-31T08:11:35.958Z,1.00
2023-03-31T08:14:03.088Z,1.47
2023-03-31T08:16:30.301Z,1.10
2023-03-31T08:18:57.522Z,1.40
2023-03-31T08:21:24.891Z,1.60
2023-03-31T08:23:54.030Z,1.63
2023-03-31T08:26:21.273Z,1.90
2023-03-31T08:28:49.768Z,2.20
2023-03-31T08:31:17.335Z,1.37
2023-03-31T08:33:44.591Z,1.77
2023-03-31T08:36:12.530Z,2.13
2023-03-31T08:38:40.537Z,1.80
2023-03-31T08:41:08.730Z,2.17
2023-03-31T08:43:41.334Z,1.70
2023-03-31T08:46:11.158Z,2.67
2023-03-31T08:48:40.256Z,1.83
2023-03-31T08:51:13.591Z,2.00
2023-03-31T08:53:43.036Z,1.83
2023-03-31T08:56:15.226Z,3.37
2023-03-31T08:58:43.249Z,2.23
2023-03-31T09:01:18.696Z,2.07
2023-03-31T09:03:50.712Z,1.97
2023-03-31T09:06:22.196Z,1.70
2023-03-31T09:08:49.380Z,1.90
2023-03-31T09:11:24.271Z,2.33
2023-03-31T09:14:09.484Z,2.30
2023-03-31T09:16:39.391Z,2.70
2023-03-31T09:19:12.439Z,2.63
2023-03-31T09:21:41.363Z,2.40
2023-03-31T09:24:12.223Z,2.40
2023-03-31T09:26:41.401Z,2.10
2023-03-31T09:29:13.526Z,2.60
2023-03-31T09:31:43.712Z,3.17
2023-03-31T09:34:13.601Z,2.80
2023-03-31T09:36:40.728Z,2.73
2023-03-31T09:39:11.167Z,2.77
2023-03-31T09:41:38.699Z,3.07
2023-03-31T09:44:06.492Z,2.63
2023-03-31T09:46:35.437Z,2.83
2023-03-31T09:49:06.206Z,3.07
2023-03-31T09:51:35.347Z,3.23
2023-03-31T09:54:08.303Z,3.00
2023-03-31T09:56:45.019Z,4.50
2023-03-31T09:59:15.268Z,3.10
2023-03-31T10:01:42.532Z,3.03
2023-03-31T10:04:15.779Z,3.00
2023-03-31T10:06:43.190Z,2.40
2023-03-31T10:09:10.983Z,2.40
2023-03-31T10:11:38.366Z,3.27
2023-03-31T10:14:07.527Z,3.20
2023-03-31T10:16:43.299Z,2.23
2023-03-31T10:19:19.976Z,2.00
2023-03-31T10:21:48.281Z,2.77
2023-03-31T10:24:18.615Z,2.50
2023-03-31T10:26:48.611Z,3.47
2023-03-31T10:29:17.428Z,4.37
2023-03-31T10:31:44.602Z,2.60
2023-03-31T10:34:15.797Z,2.90
2023-03-31T10:36:46.632Z,3.47
2023-03-31T10:39:14.708Z,2.80
2023-03-31T10:41:41.976Z,2.83
2023-03-31T10:44:30.411Z,3.20
2023-03-31T10:47:04.057Z,2.63
2023-03-31T10:49:31.244Z,2.70
2023-03-31T10:52:00.499Z,3.23
2023-03-31T10:54:27.679Z,3.00
2023-03-31T10:56:55.654Z,2.10
2023-03-31T10:59:33.403Z,1.70
2023-03-31T11:02:18.600Z,1.20
2023-03-31T11:04:48.653Z,1.63
2023-03-31T11:07:22.613Z,2.17
2023-03-31T11:09:58.977Z,1.57
2023-03-31T11:12:28.451Z,1.87
2023-03-31T11:15:02.380Z,2.20
2023-03-31T11:17:35.296Z,1.70
2023-03-31T11:20:11.887Z,1.73
2023-03-31T11:22:44.930Z,1.60
2023-03-31T11:25:21.521Z,1.87
2023-03-31T11:27:54.913Z,1.60
2023-03-31T11:30:24.948Z,2.33
2023-03-31T11:33:03.113Z,2.10
2023-03-31T11:35:37.335Z,2.20
2023-03-31T11:38:21.866Z,2.03
2023-03-31T11:40:56.058Z,1.77
2023-03-31T11:43:28.013Z,1.70
2023-03-31T11:45:58.316Z,2.50
2023-03-31T11:48:32.111Z,1.60
2023-03-31T11:51:00.613Z,2.37
2023-03-31T11:53:31.022Z,1.70
2023-03-31T11:55:58.761Z,1.90
2023-03-31T11:58:30.812Z,1.80
2023-03-31T12:01:02.731Z,2.37
2023-03-31T12:03:33.778Z,2.67
2023-03-31T12:06:03.396Z,2.83
2023-03-31T12:08:36.088Z,2.30
2023-03-31T12:11:05.084Z,2.00
2023-03-31T12:13:36.945Z,3.13
2023-03-31T12:16:07.049Z,2.40
2023-03-31T12:18:36.405Z,2.93
2023-03-31T12:21:04.552Z,2.00
2023-03-31T12:23:36.174Z,2.90
2023-03-31T12:26:06.398Z,2.37
2023-03-31T12:28:34.704Z,2.60
2023-03-31T12:31:02.230Z,2.10
2023-03-31T12:33:31.729Z,2.40
2023-03-31T12:36:06.729Z,2.50
2023-03-31T12:38:42.288Z,2.27
2023-03-31T12:41:12.664Z,2.40
2023-03-31T12:43:58.481Z,2.33
2023-03-31T12:46:35.493Z,3.40
2023-03-31T12:49:06.890Z,2.60
2023-03-31T12:51:59.601Z,2.37
2023-03-31T12:54:43.049Z,2.70
2023-03-31T12:57:14.303Z,2.30
2023-03-31T12:59:42.166Z,2.20
2023-03-31T13:02:17.929Z,1.83
2023-03-31T13:04:45.144Z,1.93
2023-03-31T13:07:27.252Z,2.43
2023-03-31T13:10:00.561Z,3.27
2023-03-31T13:12:29.393Z,2.20
2023-03-31T13:14:57.286Z,1.90
2023-03-31T13:17:25.836Z,3.03
2023-03-31T13:19:53.866Z,3.33
2023-03-31T13:22:31.867Z,2.63
2023-03-31T13:25:17.656Z,1.70
2023-03-31T13:27:50.557Z,1.90
2023-03-31T13:30:32.582Z,2.30
2023-03-31T13:33:04.803Z,1.83
2023-03-31T13:35:32.446Z,1.60
2023-03-31T13:38:05.599Z,2.07
2023-03-31T13:40:50.082Z,2.03
2023-03-31T13:43:32.132Z,1.87
2023-03-31T13:46:07.487Z,2.20
2023-03-31T13:48:40.549Z,2.50
2023-03-31T13:51:16.289Z,2.17
2023-03-31T13:54:04.442Z,1.50
2023-03-31T13:56:50.341Z,2.47
2023-03-31T13:59:26.515Z,1.63
2023-03-31T14:02:21.636Z,1.87
2023-03-31T14:05:00.487Z,1.90
2023-03-31T14:07:30.860Z,2.33
2023-03-31T14:09:57.964Z,2.00
2023-03-31T14:12:31.645Z,2.10
2023-03-31T14:14:58.927Z,1.17
2023-03-31T14:17:29.366Z,1.50
2023-03-31T14:20:04.119Z,1.30
2023-03-31T14:22:38.637Z,1.70
2023-03-31T14:25:10.103Z,1.30
2023-03-31T14:27:45.936Z,1.77
2023-03-31T14:30:18.353Z,1.97
2023-03-31T14:32:51.566Z,2.70
2023-03-31T14:35:25.000Z,1.20
2023-03-31T14:37:52.232Z,1.33
2023-03-31T14:40:19.446Z,1.33
2023-03-31T14:42:47.205Z,2.20
2023-03-31T14:45:17.247Z,1.43
2023-03-31T14:47:53.671Z,1.50
2023-03-31T14:50:22.607Z,1.83
2023-03-31T14:52:50.386Z,1.70
2023-03-31T14:55:18.104Z,1.60
2023-03-31T14:57:46.671Z,1.77
2023-03-31T15:00:15.340Z,2.10
2023-03-31T15:02:43.890Z,1.93
2023-03-31T15:05:16.096Z,2.00
2023-03-31T15:07:44.700Z,1.90
2023-03-31T15:10:17.189Z,2.30
2023-03-31T15:12:44.466Z,2.53
2023-03-31T15:15:12.493Z,2.00
2023-03-31T15:17:40.386Z,2.50
2023-03-31T15:20:22.515Z,2.60
2023-03-31T15:22:50.994Z,2.40
2023-03-31T15:25:18.206Z,2.43
2023-03-31T15:27:46.896Z,2.73
2023-03-31T15:30:17.560Z,2.73
2023-03-31T15:32:45.068Z,2.40
2023-03-31T15:35:22.089Z,2.30
2023-03-31T15:37:51.923Z,2.60
2023-03-31T15:40:20.203Z,2.33
2023-03-31T15:43:01.625Z,2.40
2023-03-31T15:45:52.875Z,2.43
2023-03-31T15:48:22.017Z,2.70
2023-03-31T15:50:49.599Z,3.50
2023-03-31T15:53:26.987Z,2.50
2023-03-31T15:55:54.633Z,2.37
2023-03-31T15:58:24.585Z,2.20
2023-03-31T16:00:52.746Z,2.10
2023-03-31T16:03:24.270Z,2.40
2023-03-31T16:05:54.738Z,2.60
2023-03-31T16:08:25.532Z,1.90
2023-03-31T16:10:58.820Z,2.13
2023-03-31T16:13:26.422Z,2.20
2023-03-31T16:15:54.808Z,1.67
2023-03-31T16:18:26.671Z,1.53
2023-03-31T16:20:55.029Z,1.57
2023-03-31T16:23:24.211Z,2.00
2023-03-31T16:25:51.442Z,1.80
2023-03-31T16:28:21.170Z,1.70
2023-03-31T16:30:48.440Z,1.40
2023-03-31T16:33:16.452Z,1.50
2023-03-31T16:35:44.187Z,1.70
2023-03-31T16:38:12.202Z,1.67
2023-03-31T16:40:40.097Z,1.90
2023-03-31T16:43:07.912Z,2.57
2023-03-31T16:45:36.471Z,1.27
2023-03-31T16:48:15.076Z,1.30
2023-03-31T16:50:44.050Z,1.30
2023-03-31T16:53:12.779Z,1.93
2023-03-31T16:55:39.919Z,1.57
2023-03-31T16:58:07.081Z,1.80
2023-03-31T17:00:35.131Z,1.80
2023-03-31T17:03:03.908Z,2.00
2023-03-31T17:05:31.531Z,1.30
2023-03-31T17:07:58.925Z,1.97
2023-03-31T17:10:26.346Z,1.33
2023-03-31T17:12:53.531Z,1.67
2023-03-31T17:15:20.660Z,1.63
2023-03-31T17:17:47.923Z,1.73
2023-03-31T17:20:16.543Z,1.77
2023-03-31T17:22:43.732Z,1.57
2023-03-31T17:25:10.844Z,2.73
2023-03-31T17:27:38.006Z,2.33
2023-03-31T17:32:38.003Z,2.57
2023-03-31T17:35:05.468Z,2.50
2023-03-31T17:37:34.492Z,2.63
2023-03-31T17:40:01.626Z,1.80
2023-03-31T17:42:28.777Z,1.90
2023-03-31T17:44:55.899Z,1.53
2023-03-31T17:47:23.119Z,2.00
2023-03-31T17:49:50.390Z,1.40
2023-03-31T17:52:17.521Z,1.60
2023-03-31T17:54:47.503Z,1.40
2023-03-31T17:57:16.581Z,1.47
2023-03-31T17:59:43.685Z,1.37
2023-03-31T18:02:11.963Z,1.97
2023-03-31T18:04:39.180Z,1.40
2023-03-31T18:07:06.318Z,1.43
2023-03-31T18:09:33.538Z,1.40
2023-03-31T18:12:02.092Z,1.43
2023-03-31T18:14:29.249Z,2.13
2023-03-31T18:16:56.487Z,1.70
2023-03-31T18:19:23.560Z,1.60
2023-03-31T18:21:50.665Z,1.43
2023-03-31T18:24:17.972Z,2.30
2023-03-31T18:26:45.150Z,1.70
2023-03-31T18:29:13.627Z,1.93
2023-03-31T18:31:43.944Z,1.33
2023-03-31T18:34:11.130Z,1.50
2023-03-31T18:36:38.357Z,1.83
2023-03-31T18:39:05.500Z,1.77
2023-03-31T18:41:32.605Z,1.80
2023-03-31T18:43:59.749Z,1.93
2023-03-31T18:46:28.261Z,2.03
2023-03-31T18:48:55.358Z,2.03
2023-03-31T18:51:22.429Z,2.07
2023-03-31T18:53:49.568Z,2.10
2023-03-31T18:56:16.669Z,2.40
2023-03-31T18:58:43.801Z,2.30
2023-03-31T19:01:11.084Z,2.27
2023-03-31T19:03:39.689Z,2.27
2023-03-31T19:06:07.780Z,2.03
2023-03-31T19:08:34.925Z,1.63
2023-03-31T19:11:05.743Z,1.20
2023-03-31T19:13:32.928Z,1.70
2023-03-31T19:16:00.034Z,1.07
2023-03-31T19:18:28.206Z,1.57
2023-03-31T19:20:56.706Z,1.30
2023-03-31T19:23:23.784Z,1.00
2023-03-31T19:25:54.456Z,1.60
2023-03-31T19:28:21.701Z,1.43
2023-03-31T19:30:49.297Z,1.50
2023-03-31T19:33:16.446Z,1.47
2023-03-31T19:35:43.782Z,1.90
2023-03-31T19:38:12.715Z,1.80
2023-03-31T19:40:40.915Z,1.80
2023-03-31T19:43:08.274Z,1.63
2023-03-31T19:45:36.800Z,2.70
2023-03-31T19:48:04.175Z,2.27
2023-03-31T19:50:31.333Z,1.67
2023-03-31T19:52:58.451Z,1.90
2023-03-31T19:55:26.967Z,2.43
2023-03-31T19:57:54.053Z,1.70
2023-03-31T20:00:21.459Z,2.20
2023-03-31T20:02:48.853Z,1.93
2023-03-31T20:05:16.175Z,1.70
2023-03-31T20:07:43.255Z,2.07
2023-03-31T20:10:10.375Z,2.33
2023-03-31T20:12:38.904Z,1.83
2023-03-31T20:15:06.559Z,2.00
2023-03-31T20:17:33.726Z,1.83
2023-03-31T20:20:00.910Z,3.03
2023-03-31T20:22:28.036Z,1.90
2023-03-31T20:24:55.167Z,2.03
2023-03-31T20:27:22.356Z,1.70
2023-03-31T20:29:50.836Z,2.17
2023-03-31T20:32:17.930Z,2.00
2023-03-31T20:34:45.052Z,2.20
2023-03-31T20:37:12.221Z,2.10
2023-03-31T20:39:39.354Z,2.67
2023-03-31T20:42:06.492Z,2.10
2023-03-31T20:44:33.689Z,2.07
2023-03-31T20:47:02.326Z,2.10
2023-03-31T20:49:29.523Z,2.00
2023-03-31T20:51:56.689Z,2.53
2023-03-31T20:54:23.791Z,2.23
2023-03-31T20:56:51.007Z,2.67
2023-03-31T20:59:18.219Z,2.40
2023-03-31T21:01:45.540Z,2.40
2023-03-31T21:04:14.125Z,2.30
2023-03-31T21:06:42.444Z,2.00
2023-03-31T21:09:09.958Z,4.00
2023-03-31T21:11:37.059Z,2.33
2023-03-31T21:14:04.207Z,1.80
2023-03-31T21:16:31.316Z,2.07
2023-03-31T21:18:58.711Z,1.80
2023-03-31T21:21:27.740Z,1.97
2023-03-31T21:23:55.322Z,2.27
2023-03-31T21:26:22.662Z,2.60
2023-03-31T21:28:50.762Z,2.17
2023-03-31T21:31:18.981Z,2.17
2023-03-31T21:33:46.765Z,2.43
2023-03-31T21:36:14.879Z,1.97
2023-03-31T21:38:43.499Z,1.80
2023-03-31T21:41:11.804Z,1.73
2023-03-31T21:43:39.230Z,2.10
2023-03-31T21:46:06.856Z,1.50
2023-03-31T21:48:34.315Z,2.00
2023-03-31T21:51:01.933Z,2.73
2023-03-31T21:53:29.722Z,1.93
2023-03-31T21:55:58.425Z,2.13
2023-03-31T21:58:26.089Z,1.87
2023-03-31T22:00:53.253Z,1.93
2023-03-31T22:03:27.114Z,2.27
2023-03-31T22:05:55.095Z,1.63
2023-03-31T22:08:22.183Z,1.90
2023-03-31T22:10:49.741Z,1.10
2023-03-31T22:13:18.321Z,2.27
2023-03-31T22:15:45.464Z,1.70
2023-03-31T22:18:12.668Z,1.70
2023-03-31T22:20:39.768Z,2.37
2023-03-31T22:23:06.929Z,1.50
2023-03-31T22:25:34.575Z,1.50
2023-03-31T22:28:03.044Z,1.80
2023-03-31T22:30:32.508Z,1.73
2023-03-31T22:32:59.760Z,2.23
2023-03-31T22:35:27.001Z,1.77
2023-03-31T22:37:54.117Z,1.57
2023-03-31T22:40:21.232Z,1.60
2023-03-31T22:42:48.374Z,1.60
2023-03-31T22:45:15.566Z,1.70
2023-03-31T22:47:44.114Z,1.40
2023-03-31T22:50:11.767Z,1.70
2023-03-31T22:52:38.861Z,1.77
2023-03-31T22:55:06.598Z,1.60
2023-03-31T22:57:34.110Z,1.77
2023-03-31T23:00:01.310Z,1.80
2023-03-31T23:02:28.488Z,1.10
2023-03-31T23:04:56.974Z,2.20
2023-03-31T23:07:24.142Z,2.70
2023-03-31T23:09:52.318Z,1.70
2023-03-31T23:12:19.441Z,1.47
2023-03-31T23:14:46.527Z,1.37
2023-03-31T23:17:13.606Z,2.00
2023-03-31T23:19:40.778Z,1.37
2023-03-31T23:22:09.290Z,1.60
2023-03-31T23:24:36.375Z,2.17
2023-03-31T23:27:03.503Z,1.17
2023-03-31T23:29:30.664Z,1.20
2023-03-31T23:31:57.937Z,1.20
2023-03-31T23:34:25.120Z,1.60
2023-03-31T23:36:52.244Z,1.40
2023-03-31T23:39:20.734Z,1.90
2023-03-31T23:41:47.862Z,1.77
2023-03-31T23:44:14.974Z,1.20
2023-03-31T23:46:43.992Z,1.20
2023-03-31T23:49:11.627Z,1.53
2023-03-31T23:51:38.729Z,1.40
2023-03-31T23:54:05.853Z,1.27
2023-03-31T23:56:34.360Z,1.50
2023-03-31T23:59:01.664Z,1.30
